PWSweather.com
Personal Weather Stations
Station Observations
MIKESPOST
YorkGB

YorkGB

Lat: 53.9577018, Lon: -1.0822855

Elevation: 0

Station Type: WH1081

High Low Average
Temperature 73.6°F23.1°F 51.3°F10.7°F 59.3°F15.2°F
Dew Point 56.9°F13.8°F 42.9°F6.1°F 49.7°F9.8°F
Winds 11.3 mph E18.2 mph E Calm Calm 2.0 mph 3.2 mph
Wind Gusts 19.0 mph30.6 mph -- 4.9 mph7.9 mph
Humidity 89% 35% 73%
Pressure 29.72 in1006.40 in 29.62 in1003.00 in -
Precipitation 0.13 in3.30 in - -
Hour Temp Dew Point Humidity Winds Wind Gusts Pressure Precip Precip Rate Daily Precip Total
12:00 AM 54.3°F12.4°C 49.0°F9.4°C 82% Calm Calm -- 29.65 in1004.1 mb 0.00 in0.0 mm 0.00 in0.0 mm 0.00 in0.0 mm
12:20 AM 54.1°F12.3°C 49.1°F9.5°C 83% 0.1 mph S0.2 kmh S 1.7 mph2.7 kmh 29.65 in1004.1 mb 0.00 in0.0 mm 0.00 in0.0 mm 0.00 in0.0 mm
12:40 AM 54.5°F12.5°C 49.1°F9.5°C 82% Calm Calm -- 29.65 in1004.1 mb 0.00 in0.0 mm 0.00 in0.0 mm 0.00 in0.0 mm
01:00 AM 54.9°F12.7°C 48.5°F9.2°C 79% Calm Calm -- 29.64 in1003.7 mb 0.00 in0.0 mm 0.00 in0.0 mm 0.00 in0.0 mm
01:20 AM 54.1°F12.3°C 47.4°F8.6°C 78% Calm Calm -- 29.64 in1003.7 mb 0.00 in0.0 mm 0.00 in0.0 mm 0.00 in0.0 mm
01:40 AM 54.1°F12.3°C 47.4°F8.6°C 78% Calm Calm -- 29.64 in1003.7 mb 0.00 in0.0 mm 0.00 in0.0 mm 0.00 in0.0 mm
02:00 AM 54.1°F12.3°C 47.4°F8.6°C 78% Calm Calm -- 29.64 in1003.7 mb 0.00 in0.0 mm 0.00 in0.0 mm 0.00 in0.0 mm
02:20 AM 53.2°F11.8°C 46.9°F8.3°C 79% Calm Calm -- 29.63 in1003.4 mb 0.00 in0.0 mm 0.00 in0.0 mm 0.00 in0.0 mm
02:40 AM 52.3°F11.3°C 46.7°F8.2°C 81% 0.7 mph S1.1 kmh S 3.9 mph6.3 kmh 29.63 in1003.4 mb 0.00 in0.0 mm 0.00 in0.0 mm 0.00 in0.0 mm
06:22 AM 54.7°F12.6°C 49.3°F9.6°C 82% Calm Calm -- 29.63 in1003.4 mb 0.00 in0.0 mm 0.00 in0.0 mm 0.00 in0.0 mm
06:36 AM 52.2°F11.2°C 46.8°F8.2°C 82% Calm Calm -- 29.63 in1003.4 mb 0.00 in0.0 mm 0.00 in0.0 mm 0.00 in0.0 mm
06:37 AM 55.9°F13.3°C 50.2°F10.1°C 81% Calm Calm -- 29.63 in1003.4 mb 0.00 in0.0 mm 0.00 in0.0 mm 0.00 in0.0 mm
07:00 AM 57.2°F14.0°C 50.1°F10.1°C 77% 4.2 mph SE6.8 kmh SE 9.5 mph15.3 kmh 29.63 in1003.4 mb 0.00 in0.0 mm 0.00 in0.0 mm 0.00 in0.0 mm
07:20 AM 57.2°F14.0°C 50.4°F10.2°C 78% 2.6 mph ESE4.2 kmh ESE 7.8 mph12.6 kmh 29.63 in1003.4 mb 0.00 in0.0 mm 0.00 in0.0 mm 0.00 in0.0 mm
07:40 AM 57.6°F14.2°C 50.8°F10.4°C 78% 3.8 mph SSE6.1 kmh SSE 11.2 mph18.0 kmh 29.64 in1003.7 mb 0.00 in0.0 mm 0.00 in0.0 mm 0.00 in0.0 mm
08:00 AM 60.6°F15.9°C 50.8°F10.4°C 70% 9.3 mph SE15.0 kmh SE 15.1 mph24.3 kmh 29.64 in1003.7 mb 0.00 in0.0 mm 0.00 in0.0 mm 0.00 in0.0 mm
08:20 AM 64.0°F17.8°C 52.5°F11.4°C 66% 4.9 mph E7.9 kmh E 11.2 mph18.0 kmh 29.64 in1003.7 mb 0.00 in0.0 mm 0.00 in0.0 mm 0.00 in0.0 mm
08:40 AM 64.4°F18.0°C 50.7°F10.4°C 61% 5.4 mph SSE8.7 kmh SSE 9.5 mph15.3 kmh 29.65 in1004.1 mb 0.00 in0.0 mm 0.00 in0.0 mm 0.00 in0.0 mm
09:00 AM 67.3°F19.6°C 52.0°F11.1°C 58% 5.1 mph E8.2 kmh E 11.2 mph18.0 kmh 29.64 in1003.7 mb 0.00 in0.0 mm 0.00 in0.0 mm 0.00 in0.0 mm
09:20 AM 67.8°F19.9°C 49.6°F9.8°C 52% 5.4 mph E8.7 kmh E 15.1 mph24.3 kmh 29.64 in1003.7 mb 0.00 in0.0 mm 0.00 in0.0 mm 0.00 in0.0 mm
09:40 AM 70.0°F21.1°C 45.9°F7.7°C 42% 7.1 mph SSE11.4 kmh SSE 13.4 mph21.6 kmh 29.64 in1003.7 mb 0.00 in0.0 mm 0.00 in0.0 mm 0.00 in0.0 mm
10:00 AM 73.6°F23.1°C 44.3°F6.8°C 35% 2.8 mph WNW4.5 kmh WNW 7.8 mph12.6 kmh 29.64 in1003.7 mb 0.00 in0.0 mm 0.00 in0.0 mm 0.00 in0.0 mm
10:20 AM 69.6°F20.9°C 44.3°F6.8°C 40% 4.0 mph ESE6.4 kmh ESE 11.2 mph18.0 kmh 29.64 in1003.7 mb 0.00 in0.0 mm 0.00 in0.0 mm 0.00 in0.0 mm
10:40 AM 68.9°F20.5°C 44.9°F7.2°C 42% 5.0 mph ESE8.0 kmh ESE 15.1 mph24.3 kmh 29.64 in1003.7 mb 0.00 in0.0 mm 0.00 in0.0 mm 0.00 in0.0 mm
11:00 AM 68.9°F20.5°C 44.9°F7.2°C 42% 5.2 mph NE8.4 kmh NE 11.2 mph18.0 kmh 29.64 in1003.7 mb 0.00 in0.0 mm 0.00 in0.0 mm 0.00 in0.0 mm
11:20 AM 69.4°F20.8°C 45.4°F7.4°C 42% 7.6 mph E12.2 kmh E 15.1 mph24.3 kmh 29.64 in1003.7 mb 0.00 in0.0 mm 0.00 in0.0 mm 0.00 in0.0 mm
11:40 AM 69.3°F20.7°C 47.0°F8.3°C 45% 1.9 mph E3.1 kmh E 5.6 mph9.0 kmh 29.63 in1003.4 mb 0.00 in0.0 mm 0.00 in0.0 mm 0.00 in0.0 mm
12:00 PM 71.4°F21.9°C 45.2°F7.3°C 39% 10.0 mph ESE16.1 kmh ESE 17.3 mph27.8 kmh 29.63 in1003.4 mb 0.00 in0.0 mm 0.00 in0.0 mm 0.00 in0.0 mm
12:20 PM 70.3°F21.3°C 42.9°F6.1°C 37% 11.3 mph E18.2 kmh E 19.0 mph30.6 kmh 29.62 in1003.0 mb 0.00 in0.0 mm 0.00 in0.0 mm 0.00 in0.0 mm
12:40 PM 68.9°F20.5°C 46.1°F7.8°C 44% 9.7 mph NE15.6 kmh NE 17.3 mph27.8 kmh 29.62 in1003.0 mb 0.00 in0.0 mm 0.00 in0.0 mm 0.00 in0.0 mm
01:00 PM 67.3°F19.6°C 48.0°F8.9°C 50% 4.6 mph E7.4 kmh E 19.0 mph30.6 kmh 29.62 in1003.0 mb 0.00 in0.0 mm 0.00 in0.0 mm 0.00 in0.0 mm
01:20 PM 67.8°F19.9°C 49.6°F9.8°C 52% 3.4 mph SE5.5 kmh SE 13.4 mph21.6 kmh 29.62 in1003.0 mb 0.00 in0.0 mm 0.00 in0.0 mm 0.00 in0.0 mm
01:40 PM 65.8°F18.8°C 51.6°F10.9°C 60% 8.4 mph ENE13.5 kmh ENE 17.3 mph27.8 kmh 29.63 in1003.4 mb 0.00 in0.0 mm 0.00 in0.0 mm 0.00 in0.0 mm
02:00 PM 62.8°F17.1°C 53.3°F11.8°C 71% 2.1 mph SSE3.4 kmh SSE 7.8 mph12.6 kmh 29.63 in1003.4 mb 0.01 in0.3 mm 0.02 in0.5 mm 0.01 in0.3 mm
02:20 PM 61.7°F16.5°C 54.8°F12.7°C 78% 0.8 mph SW1.3 kmh SW 5.6 mph9.0 kmh 29.65 in1004.1 mb 0.02 in0.5 mm 0.03 in0.8 mm 0.02 in0.5 mm
02:40 PM 62.2°F16.8°C 56.4°F13.6°C 81% 1.1 mph E1.8 kmh E 7.8 mph12.6 kmh 29.65 in1004.1 mb 0.04 in1.0 mm 0.06 in1.5 mm 0.04 in1.0 mm
03:00 PM 63.9°F17.7°C 56.9°F13.8°C 78% 0.1 mph W0.2 kmh W 1.7 mph2.7 kmh 29.64 in1003.7 mb 0.02 in0.5 mm 0.00 in0.0 mm 0.04 in1.0 mm
03:20 PM 62.8°F17.1°C 54.8°F12.7°C 75% 0.4 mph W0.6 kmh W 3.9 mph6.3 kmh 29.64 in1003.7 mb 0.01 in0.3 mm 0.00 in0.0 mm 0.04 in1.0 mm
03:40 PM 61.3°F16.3°C 54.1°F12.3°C 77% 0.9 mph NNE1.4 kmh NNE 5.6 mph9.0 kmh 29.65 in1004.1 mb 0.01 in0.3 mm 0.00 in0.0 mm 0.05 in1.3 mm
04:00 PM 60.8°F16.0°C 54.6°F12.6°C 80% 0.1 mph SE0.2 kmh SE 1.7 mph2.7 kmh 29.64 in1003.7 mb 0.01 in0.3 mm 0.00 in0.0 mm 0.05 in1.3 mm
04:20 PM 63.0°F17.2°C 56.0°F13.3°C 78% 1.1 mph SE1.8 kmh SE 3.9 mph6.3 kmh 29.65 in1004.1 mb 0.01 in0.3 mm 0.00 in0.0 mm 0.05 in1.3 mm
04:40 PM 64.6°F18.1°C 55.4°F13.0°C 72% 3.2 mph SE5.1 kmh SE 9.5 mph15.3 kmh 29.64 in1003.7 mb 0.00 in0.0 mm 0.00 in0.0 mm 0.05 in1.3 mm
05:00 PM 63.5°F17.5°C 55.1°F12.8°C 74% 1.3 mph ESE2.1 kmh ESE 5.6 mph9.0 kmh 29.65 in1004.1 mb 0.00 in0.0 mm 0.00 in0.0 mm 0.05 in1.3 mm
05:20 PM 62.8°F17.1°C 54.0°F12.2°C 73% 1.6 mph E2.6 kmh E 9.5 mph15.3 kmh 29.65 in1004.1 mb 0.00 in0.0 mm 0.00 in0.0 mm 0.05 in1.3 mm
05:40 PM 62.6°F17.0°C 54.9°F12.7°C 76% Calm Calm -- 29.65 in1004.1 mb 0.00 in0.0 mm 0.00 in0.0 mm 0.05 in1.3 mm
06:00 PM 61.9°F16.6°C 53.5°F11.9°C 74% 0.1 mph E0.2 kmh E 1.7 mph2.7 kmh 29.65 in1004.1 mb 0.00 in0.0 mm 0.00 in0.0 mm 0.05 in1.3 mm
06:20 PM 61.5°F16.4°C 53.5°F11.9°C 75% 0.2 mph NE0.3 kmh NE 1.7 mph2.7 kmh 29.66 in1004.4 mb 0.00 in0.0 mm 0.00 in0.0 mm 0.05 in1.3 mm
06:40 PM 60.8°F16.0°C 53.6°F12.0°C 77% Calm Calm -- 29.66 in1004.4 mb 0.00 in0.0 mm 0.00 in0.0 mm 0.05 in1.3 mm
07:00 PM 60.1°F15.6°C 53.2°F11.8°C 78% Calm Calm -- 29.66 in1004.4 mb 0.00 in0.0 mm 0.00 in0.0 mm 0.05 in1.3 mm
07:20 PM 59.2°F15.1°C 52.7°F11.5°C 79% Calm Calm -- 29.67 in1004.7 mb 0.00 in0.0 mm 0.00 in0.0 mm 0.05 in1.3 mm
07:40 PM 58.1°F14.5°C 52.3°F11.3°C 81% Calm Calm -- 29.68 in1005.1 mb 0.00 in0.0 mm 0.00 in0.0 mm 0.05 in1.3 mm
08:00 PM 56.7°F13.7°C 51.2°F10.7°C 82% Calm Calm -- 29.68 in1005.1 mb 0.00 in0.0 mm 0.00 in0.0 mm 0.05 in1.3 mm
08:20 PM 55.4°F13.0°C 50.3°F10.2°C 83% Calm Calm -- 29.69 in1005.4 mb 0.00 in0.0 mm 0.00 in0.0 mm 0.05 in1.3 mm
08:40 PM 54.5°F12.5°C 49.8°F9.9°C 84% Calm Calm -- 29.71 in1006.1 mb 0.00 in0.0 mm 0.00 in0.0 mm 0.05 in1.3 mm
09:00 PM 54.0°F12.2°C 49.9°F9.9°C 86% Calm Calm -- 29.70 in1005.8 mb 0.00 in0.0 mm 0.00 in0.0 mm 0.05 in1.3 mm
09:20 PM 53.6°F12.0°C 49.8°F9.9°C 87% Calm Calm -- 29.71 in1006.1 mb 0.00 in0.0 mm 0.00 in0.0 mm 0.05 in1.3 mm
09:40 PM 53.2°F11.8°C 49.5°F9.7°C 87% Calm Calm -- 29.72 in1006.4 mb 0.00 in0.0 mm 0.00 in0.0 mm 0.05 in1.3 mm
10:00 PM 52.5°F11.4°C 49.1°F9.5°C 88% Calm Calm -- 29.72 in1006.4 mb 0.00 in0.0 mm 0.00 in0.0 mm 0.05 in1.3 mm
10:20 PM 52.2°F11.2°C 49.0°F9.4°C 89% Calm Calm -- 29.72 in1006.4 mb 0.00 in0.0 mm 0.00 in0.0 mm 0.05 in1.3 mm